sensor_id;sensor_type;location;lat;lon;timestamp;temperature;humidity
73576;DHT22;61859;49.204;8.140;2023-02-26T00:01:39;-0.60;73.90
73576;DHT22;61859;49.204;8.140;2023-02-26T00:04:05;-0.40;73.90
73576;DHT22;61859;49.204;8.140;2023-02-26T00:06:34;-0.50;74.70
73576;DHT22;61859;49.204;8.140;2023-02-26T00:09:00;-0.60;74.30
73576;DHT22;61859;49.204;8.140;2023-02-26T00:11:26;-0.50;75.10
73576;DHT22;61859;49.204;8.140;2023-02-26T00:13:51;-0.80;74.60
73576;DHT22;61859;49.204;8.140;2023-02-26T00:16:30;-0.80;74.70
73576;DHT22;61859;49.204;8.140;2023-02-26T00:18:59;-0.80;74.90
73576;DHT22;61859;49.204;8.140;2023-02-26T00:21:26;-0.80;75.10
73576;DHT22;61859;49.204;8.140;2023-02-26T00:23:52;-0.70;75.30
73576;DHT22;61859;49.204;8.140;2023-02-26T00:26:19;-0.70;75.50
73576;DHT22;61859;49.204;8.140;2023-02-26T00:28:45;-0.80;75.00
73576;DHT22;61859;49.204;8.140;2023-02-26T00:31:13;-1.00;75.40
73576;DHT22;61859;49.204;8.140;2023-02-26T00:33:39;-1.10;75.60
73576;DHT22;61859;49.204;8.140;2023-02-26T00:39:15;-1.10;76.80
73576;DHT22;61859;49.204;8.140;2023-02-26T00:41:46;-1.10;77.20
73576;DHT22;61859;49.204;8.140;2023-02-26T00:44:11;-1.40;77.40
73576;DHT22;61859;49.204;8.140;2023-02-26T00:46:54;-1.40;77.30
73576;DHT22;61859;49.204;8.140;2023-02-26T00:55:25;-1.40;79.20
73576;DHT22;61859;49.204;8.140;2023-02-26T00:57:50;-1.50;79.00
73576;DHT22;61859;49.204;8.140;2023-02-26T01:00:18;-1.40;79.10
73576;DHT22;61859;49.204;8.140;2023-02-26T01:02:44;-1.60;78.70
73576;DHT22;61859;49.204;8.140;2023-02-26T01:05:10;-1.50;78.30
73576;DHT22;61859;49.204;8.140;2023-02-26T01:07:41;-1.50;78.90
73576;DHT22;61859;49.204;8.140;2023-02-26T01:10:09;-1.60;79.60
73576;DHT22;61859;49.204;8.140;2023-02-26T01:12:35;-1.60;80.10
73576;DHT22;61859;49.204;8.140;2023-02-26T01:15:02;-1.70;80.50
73576;DHT22;61859;49.204;8.140;2023-02-26T01:17:41;-1.80;80.40
73576;DHT22;61859;49.204;8.140;2023-02-26T01:20:11;-1.80;80.90
73576;DHT22;61859;49.204;8.140;2023-02-26T01:22:44;-1.80;81.30
73576;DHT22;61859;49.204;8.140;2023-02-26T01:25:15;-1.90;80.90
73576;DHT22;61859;49.204;8.140;2023-02-26T01:27:42;-1.60;81.10
73576;DHT22;61859;49.204;8.140;2023-02-26T01:30:08;-1.80;81.50
73576;DHT22;61859;49.204;8.140;2023-02-26T01:32:42;-1.70;81.30
73576;DHT22;61859;49.204;8.140;2023-02-26T01:35:23;-1.80;81.50
73576;DHT22;61859;49.204;8.140;2023-02-26T01:43:44;-1.80;81.60
73576;DHT22;61859;49.204;8.140;2023-02-26T01:46:15;-1.80;81.40
73576;DHT22;61859;49.204;8.140;2023-02-26T01:48:52;-1.90;81.20
73576;DHT22;61859;49.204;8.140;2023-02-26T01:51:42;-1.60;81.20
73576;DHT22;61859;49.204;8.140;2023-02-26T01:54:04;-1.50;80.80
73576;DHT22;61859;49.204;8.140;2023-02-26T01:56:29;-1.80;80.80
73576;DHT22;61859;49.204;8.140;2023-02-26T01:58:55;-1.50;81.10
73576;DHT22;61859;49.204;8.140;2023-02-26T02:01:21;-1.50;80.70
73576;DHT22;61859;49.204;8.140;2023-02-26T02:03:46;-1.30;80.50
73576;DHT22;61859;49.204;8.140;2023-02-26T02:06:24;-1.40;80.30
73576;DHT22;61859;49.204;8.140;2023-02-26T02:08:50;-1.40;80.10
73576;DHT22;61859;49.204;8.140;2023-02-26T02:11:16;-1.30;80.30
73576;DHT22;61859;49.204;8.140;2023-02-26T02:16:19;-1.10;79.60
73576;DHT22;61859;49.204;8.140;2023-02-26T02:18:55;-1.00;79.30
73576;DHT22;61859;49.204;8.140;2023-02-26T02:21:51;-1.00;79.80
73576;DHT22;61859;49.204;8.140;2023-02-26T02:27:08;-1.10;80.00
73576;DHT22;61859;49.204;8.140;2023-02-26T02:30:01;-1.00;79.70
73576;DHT22;61859;49.204;8.140;2023-02-26T02:32:35;-1.10;80.50
73576;DHT22;61859;49.204;8.140;2023-02-26T02:35:14;-1.20;80.40
73576;DHT22;61859;49.204;8.140;2023-02-26T02:37:56;-1.00;80.60
73576;DHT22;61859;49.204;8.140;2023-02-26T02:40:27;-1.10;80.60
73576;DHT22;61859;49.204;8.140;2023-02-26T02:43:08;-1.00;81.00
73576;DHT22;61859;49.204;8.140;2023-02-26T02:45:42;-1.10;80.90
73576;DHT22;61859;49.204;8.140;2023-02-26T02:48:22;-1.00;80.70
73576;DHT22;61859;49.204;8.140;2023-02-26T02:50:59;-1.00;80.80
73576;DHT22;61859;49.204;8.140;2023-02-26T02:53:32;-1.20;80.70
73576;DHT22;61859;49.204;8.140;2023-02-26T02:56:03;-1.20;81.70
73576;DHT22;61859;49.204;8.140;2023-02-26T02:58:33;-1.20;81.60
73576;DHT22;61859;49.204;8.140;2023-02-26T03:01:06;-1.20;82.10
73576;DHT22;61859;49.204;8.140;2023-02-26T03:03:38;-1.20;81.80
73576;DHT22;61859;49.204;8.140;2023-02-26T03:06:07;-1.20;82.20
73576;DHT22;61859;49.204;8.140;2023-02-26T03:08:38;-1.40;82.00
73576;DHT22;61859;49.204;8.140;2023-02-26T03:11:06;-1.30;82.40
73576;DHT22;61859;49.204;8.140;2023-02-26T03:13:32;-1.30;82.60
73576;DHT22;61859;49.204;8.140;2023-02-26T03:16:12;-1.30;82.60
73576;DHT22;61859;49.204;8.140;2023-02-26T03:24:02;-1.10;82.50
73576;DHT22;61859;49.204;8.140;2023-02-26T03:29:54;-1.50;82.80
73576;DHT22;61859;49.204;8.140;2023-02-26T03:37:44;-1.30;82.40
73576;DHT22;61859;49.204;8.140;2023-02-26T03:40:24;-1.20;82.70
73576;DHT22;61859;49.204;8.140;2023-02-26T03:43:04;-1.30;82.90
73576;DHT22;61859;49.204;8.140;2023-02-26T03:45:33;-1.30;82.70
73576;DHT22;61859;49.204;8.140;2023-02-26T03:48:00;-1.30;82.80
73576;DHT22;61859;49.204;8.140;2023-02-26T03:50:48;-1.50;82.60
73576;DHT22;61859;49.204;8.140;2023-02-26T03:53:18;-1.50;82.90
73576;DHT22;61859;49.204;8.140;2023-02-26T03:55:54;-1.50;83.00
73576;DHT22;61859;49.204;8.140;2023-02-26T03:58:22;-1.50;82.50
73576;DHT22;61859;49.204;8.140;2023-02-26T04:00:53;-1.30;82.40
73576;DHT22;61859;49.204;8.140;2023-02-26T04:03:39;-1.40;82.60
73576;DHT22;61859;49.204;8.140;2023-02-26T04:06:07;-1.30;82.40
73576;DHT22;61859;49.204;8.140;2023-02-26T04:08:33;-1.20;82.40
73576;DHT22;61859;49.204;8.140;2023-02-26T04:11:11;-1.30;82.90
73576;DHT22;61859;49.204;8.140;2023-02-26T04:13:37;-1.40;82.50
73576;DHT22;61859;49.204;8.140;2023-02-26T04:16:03;-1.30;82.30
73576;DHT22;61859;49.204;8.140;2023-02-26T04:18:29;-1.30;82.20
73576;DHT22;61859;49.204;8.140;2023-02-26T04:20:55;-1.50;82.30
73576;DHT22;61859;49.204;8.140;2023-02-26T04:23:20;-1.20;82.10
73576;DHT22;61859;49.204;8.140;2023-02-26T04:25:46;-1.30;82.20
73576;DHT22;61859;49.204;8.140;2023-02-26T04:28:12;-1.40;82.20
73576;DHT22;61859;49.204;8.140;2023-02-26T04:30:37;-1.20;82.50
73576;DHT22;61859;49.204;8.140;2023-02-26T04:33:03;-1.30;82.20
73576;DHT22;61859;49.204;8.140;2023-02-26T04:35:28;-1.20;82.40
73576;DHT22;61859;49.204;8.140;2023-02-26T04:37:54;-1.40;82.30
73576;DHT22;61859;49.204;8.140;2023-02-26T04:40:19;-1.50;82.50
73576;DHT22;61859;49.204;8.140;2023-02-26T04:42:45;-1.50;82.60
73576;DHT22;61859;49.204;8.140;2023-02-26T04:45:10;-1.60;82.80
73576;DHT22;61859;49.204;8.140;2023-02-26T04:47:36;-1.60;83.10
73576;DHT22;61859;49.204;8.140;2023-02-26T04:50:02;-1.60;83.10
73576;DHT22;61859;49.204;8.140;2023-02-26T04:52:28;-1.60;83.10
73576;DHT22;61859;49.204;8.140;2023-02-26T04:54:54;-1.70;83.70
73576;DHT22;61859;49.204;8.140;2023-02-26T04:57:19;-1.70;83.70
73576;DHT22;61859;49.204;8.140;2023-02-26T04:59:45;-1.70;84.10
73576;DHT22;61859;49.204;8.140;2023-02-26T05:02:10;-1.90;84.40
73576;DHT22;61859;49.204;8.140;2023-02-26T05:04:36;-1.90;84.60
73576;DHT22;61859;49.204;8.140;2023-02-26T05:07:01;-1.90;84.80
73576;DHT22;61859;49.204;8.140;2023-02-26T05:09:27;-1.80;85.10
73576;DHT22;61859;49.204;8.140;2023-02-26T05:11:52;-1.80;85.40
73576;DHT22;61859;49.204;8.140;2023-02-26T05:14:18;-2.00;85.60
73576;DHT22;61859;49.204;8.140;2023-02-26T05:16:43;-2.00;86.00
73576;DHT22;61859;49.204;8.140;2023-02-26T05:19:09;-1.80;86.30
73576;DHT22;61859;49.204;8.140;2023-02-26T05:21:35;-1.70;86.30
73576;DHT22;61859;49.204;8.140;2023-02-26T05:24:00;-1.80;86.50
73576;DHT22;61859;49.204;8.140;2023-02-26T05:26:26;-1.80;86.70
73576;DHT22;61859;49.204;8.140;2023-02-26T05:28:51;-1.80;87.00
73576;DHT22;61859;49.204;8.140;2023-02-26T05:31:17;-1.70;87.20
73576;DHT22;61859;49.204;8.140;2023-02-26T05:33:43;-1.70;87.10
73576;DHT22;61859;49.204;8.140;2023-02-26T05:36:09;-1.70;87.40
73576;DHT22;61859;49.204;8.140;2023-02-26T05:38:35;-1.60;87.40
73576;DHT22;61859;49.204;8.140;2023-02-26T05:41:01;-1.70;87.80
73576;DHT22;61859;49.204;8.140;2023-02-26T05:43:27;-1.60;87.80
73576;DHT22;61859;49.204;8.140;2023-02-26T05:45:53;-1.40;87.90
73576;DHT22;61859;49.204;8.140;2023-02-26T05:48:20;-1.80;87.90
73576;DHT22;61859;49.204;8.140;2023-02-26T05:50:47;-1.60;88.20
73576;DHT22;61859;49.204;8.140;2023-02-26T05:53:13;-1.70;88.80
73576;DHT22;61859;49.204;8.140;2023-02-26T05:55:38;-1.80;89.20
73576;DHT22;61859;49.204;8.140;2023-02-26T05:58:04;-1.80;89.50
73576;DHT22;61859;49.204;8.140;2023-02-26T06:00:29;-1.70;89.70
73576;DHT22;61859;49.204;8.140;2023-02-26T06:02:55;-1.70;90.00
73576;DHT22;61859;49.204;8.140;2023-02-26T06:05:20;-1.60;89.90
73576;DHT22;61859;49.204;8.140;2023-02-26T06:07:46;-1.80;90.30
73576;DHT22;61859;49.204;8.140;2023-02-26T06:10:11;-1.80;90.40
73576;DHT22;61859;49.204;8.140;2023-02-26T06:12:37;-1.70;90.40
73576;DHT22;61859;49.204;8.140;2023-02-26T06:15:04;-1.80;90.70
73576;DHT22;61859;49.204;8.140;2023-02-26T06:17:30;-1.80;90.70
73576;DHT22;61859;49.204;8.140;2023-02-26T06:19:55;-1.80;90.70
73576;DHT22;61859;49.204;8.140;2023-02-26T06:22:21;-1.80;90.70
73576;DHT22;61859;49.204;8.140;2023-02-26T06:24:47;-1.60;90.60
73576;DHT22;61859;49.204;8.140;2023-02-26T06:27:12;-1.60;90.60
73576;DHT22;61859;49.204;8.140;2023-02-26T06:29:38;-1.90;90.50
73576;DHT22;61859;49.204;8.140;2023-02-26T06:32:04;-1.60;90.50
73576;DHT22;61859;49.204;8.140;2023-02-26T06:34:30;-1.50;90.30
73576;DHT22;61859;49.204;8.140;2023-02-26T06:36:56;-1.50;90.30
73576;DHT22;61859;49.204;8.140;2023-02-26T06:39:21;-1.70;90.20
73576;DHT22;61859;49.204;8.140;2023-02-26T06:41:47;-1.60;90.10
73576;DHT22;61859;49.204;8.140;2023-02-26T06:44:12;-1.60;90.10
73576;DHT22;61859;49.204;8.140;2023-02-26T06:46:38;-1.30;90.00
73576;DHT22;61859;49.204;8.140;2023-02-26T06:49:04;-1.30;89.90
73576;DHT22;61859;49.204;8.140;2023-02-26T06:51:29;-1.20;89.80
73576;DHT22;61859;49.204;8.140;2023-02-26T06:53:56;-1.20;89.30
73576;DHT22;61859;49.204;8.140;2023-02-26T06:56:22;-1.20;88.90
73576;DHT22;61859;49.204;8.140;2023-02-26T06:58:48;-1.10;88.90
73576;DHT22;61859;49.204;8.140;2023-02-26T07:01:14;-1.20;88.80
73576;DHT22;61859;49.204;8.140;2023-02-26T07:03:39;-1.10;89.00
73576;DHT22;61859;49.204;8.140;2023-02-26T07:06:06;-1.20;88.90
73576;DHT22;61859;49.204;8.140;2023-02-26T07:08:33;-1.40;88.80
73576;DHT22;61859;49.204;8.140;2023-02-26T07:10:59;-1.20;88.90
73576;DHT22;61859;49.204;8.140;2023-02-26T07:13:24;-1.10;88.90
73576;DHT22;61859;49.204;8.140;2023-02-26T07:15:50;-1.10;88.80
73576;DHT22;61859;49.204;8.140;2023-02-26T07:18:15;-1.00;88.90
73576;DHT22;61859;49.204;8.140;2023-02-26T07:20:42;-1.20;88.80
73576;DHT22;61859;49.204;8.140;2023-02-26T07:23:07;-1.00;88.70
73576;DHT22;61859;49.204;8.140;2023-02-26T07:25:33;-1.00;88.60
73576;DHT22;61859;49.204;8.140;2023-02-26T07:27:59;-0.90;88.40
73576;DHT22;61859;49.204;8.140;2023-02-26T07:30:25;-0.70;88.00
73576;DHT22;61859;49.204;8.140;2023-02-26T07:32:50;-0.60;87.60
73576;DHT22;61859;49.204;8.140;2023-02-26T07:35:16;-0.30;87.10
73576;DHT22;61859;49.204;8.140;2023-02-26T07:37:44;-0.20;86.70
73576;DHT22;61859;49.204;8.140;2023-02-26T07:40:11;-0.10;86.30
73576;DHT22;61859;49.204;8.140;2023-02-26T07:42:37;0.10;85.70
73576;DHT22;61859;49.204;8.140;2023-02-26T07:45:02;0.30;85.10
73576;DHT22;61859;49.204;8.140;2023-02-26T07:47:28;0.30;84.50
73576;DHT22;61859;49.204;8.140;2023-02-26T07:49:55;0.50;84.00
73576;DHT22;61859;49.204;8.140;2023-02-26T07:52:21;0.40;83.90
73576;DHT22;61859;49.204;8.140;2023-02-26T07:54:46;0.60;83.10
73576;DHT22;61859;49.204;8.140;2023-02-26T07:57:12;0.40;82.90
73576;DHT22;61859;49.204;8.140;2023-02-26T07:59:38;0.60;82.70
73576;DHT22;61859;49.204;8.140;2023-02-26T08:02:05;0.60;82.10
73576;DHT22;61859;49.204;8.140;2023-02-26T08:04:30;0.60;82.50
73576;DHT22;61859;49.204;8.140;2023-02-26T08:06:58;0.50;82.40
73576;DHT22;61859;49.204;8.140;2023-02-26T08:09:25;1.00;82.00
73576;DHT22;61859;49.204;8.140;2023-02-26T08:11:51;1.20;81.50
73576;DHT22;61859;49.204;8.140;2023-02-26T08:14:16;1.30;80.70
73576;DHT22;61859;49.204;8.140;2023-02-26T08:16:42;1.80;79.10
73576;DHT22;61859;49.204;8.140;2023-02-26T08:19:08;3.30;74.90
73576;DHT22;61859;49.204;8.140;2023-02-26T08:21:33;5.50;67.60
73576;DHT22;61859;49.204;8.140;2023-02-26T08:23:59;5.80;63.20
73576;DHT22;61859;49.204;8.140;2023-02-26T08:26:25;5.10;63.80
73576;DHT22;61859;49.204;8.140;2023-02-26T08:28:50;4.10;65.50
73576;DHT22;61859;49.204;8.140;2023-02-26T08:31:16;3.30;69.00
73576;DHT22;61859;49.204;8.140;2023-02-26T08:33:42;2.70;71.60
73576;DHT22;61859;49.204;8.140;2023-02-26T08:36:08;2.30;73.40
73576;DHT22;61859;49.204;8.140;2023-02-26T08:38:33;2.10;74.30
73576;DHT22;61859;49.204;8.140;2023-02-26T08:40:59;2.10;75.20
73576;DHT22;61859;49.204;8.140;2023-02-26T08:43:25;1.80;75.50
73576;DHT22;61859;49.204;8.140;2023-02-26T08:45:52;2.00;76.10
73576;DHT22;61859;49.204;8.140;2023-02-26T08:48:18;2.00;76.00
73576;DHT22;61859;49.204;8.140;2023-02-26T08:50:44;2.20;74.90
73576;DHT22;61859;49.204;8.140;2023-02-26T08:53:10;2.40;74.80
73576;DHT22;61859;49.204;8.140;2023-02-26T08:55:35;2.20;74.10
73576;DHT22;61859;49.204;8.140;2023-02-26T08:58:01;2.10;74.40
73576;DHT22;61859;49.204;8.140;2023-02-26T09:00:26;2.00;74.20
73576;DHT22;61859;49.204;8.140;2023-02-26T09:02:52;2.20;74.80
73576;DHT22;61859;49.204;8.140;2023-02-26T09:05:18;2.10;75.10
73576;DHT22;61859;49.204;8.140;2023-02-26T09:07:43;2.10;74.60
73576;DHT22;61859;49.204;8.140;2023-02-26T09:10:11;2.20;73.80
73576;DHT22;61859;49.204;8.140;2023-02-26T09:12:36;2.20;73.80
73576;DHT22;61859;49.204;8.140;2023-02-26T09:15:04;2.20;73.70
73576;DHT22;61859;49.204;8.140;2023-02-26T09:17:30;2.20;73.10
73576;DHT22;61859;49.204;8.140;2023-02-26T09:19:56;2.40;72.50
73576;DHT22;61859;49.204;8.140;2023-02-26T09:22:22;2.50;72.00
73576;DHT22;61859;49.204;8.140;2023-02-26T09:24:48;2.90;70.30
73576;DHT22;61859;49.204;8.140;2023-02-26T09:27:13;3.00;69.30
73576;DHT22;61859;49.204;8.140;2023-02-26T09:29:39;3.10;69.20
73576;DHT22;61859;49.204;8.140;2023-02-26T09:32:05;4.20;67.50
73576;DHT22;61859;49.204;8.140;2023-02-26T09:34:36;4.50;64.40
73576;DHT22;61859;49.204;8.140;2023-02-26T09:37:04;4.40;64.90
73576;DHT22;61859;49.204;8.140;2023-02-26T09:39:30;4.00;65.80
73576;DHT22;61859;49.204;8.140;2023-02-26T09:41:59;3.80;66.00
73576;DHT22;61859;49.204;8.140;2023-02-26T09:44:32;3.70;66.50
73576;DHT22;61859;49.204;8.140;2023-02-26T09:47:22;3.30;67.20
73576;DHT22;61859;49.204;8.140;2023-02-26T09:52:44;3.50;67.90
73576;DHT22;61859;49.204;8.140;2023-02-26T09:55:27;3.50;66.70
73576;DHT22;61859;49.204;8.140;2023-02-26T09:58:02;3.90;65.80
73576;DHT22;61859;49.204;8.140;2023-02-26T10:03:30;4.20;64.60
73576;DHT22;61859;49.204;8.140;2023-02-26T10:09:19;5.30;61.40
73576;DHT22;61859;49.204;8.140;2023-02-26T10:12:02;6.80;57.10
73576;DHT22;61859;49.204;8.140;2023-02-26T10:14:32;7.90;54.60
73576;DHT22;61859;49.204;8.140;2023-02-26T10:17:05;8.30;53.50
73576;DHT22;61859;49.204;8.140;2023-02-26T10:19:36;8.40;52.00
73576;DHT22;61859;49.204;8.140;2023-02-26T10:22:23;8.70;52.00
73576;DHT22;61859;49.204;8.140;2023-02-26T10:26:02;8.40;51.70
73576;DHT22;61859;49.204;8.140;2023-02-26T10:36:38;5.20;58.90
73576;DHT22;61859;49.204;8.140;2023-02-26T10:39:32;5.20;59.40
73576;DHT22;61859;49.204;8.140;2023-02-26T10:42:04;6.00;56.40
73576;DHT22;61859;49.204;8.140;2023-02-26T10:47:32;5.90;56.20
73576;DHT22;61859;49.204;8.140;2023-02-26T10:50:04;5.90;57.40
73576;DHT22;61859;49.204;8.140;2023-02-26T10:52:32;5.80;57.30
73576;DHT22;61859;49.204;8.140;2023-02-26T10:57:55;6.10;55.50
73576;DHT22;61859;49.204;8.140;2023-02-26T11:00:24;5.80;55.50
73576;DHT22;61859;49.204;8.140;2023-02-26T11:02:51;5.30;55.40
73576;DHT22;61859;49.204;8.140;2023-02-26T11:05:24;5.10;57.60
73576;DHT22;61859;49.204;8.140;2023-02-26T11:07:55;4.60;59.10
73576;DHT22;61859;49.204;8.140;2023-02-26T11:10:30;4.30;60.60
73576;DHT22;61859;49.204;8.140;2023-02-26T11:12:57;3.80;60.60
73576;DHT22;61859;49.204;8.140;2023-02-26T11:15:25;3.50;62.00
73576;DHT22;61859;49.204;8.140;2023-02-26T11:17:56;3.30;62.40
73576;DHT22;61859;49.204;8.140;2023-02-26T11:22:53;3.40;63.10
73576;DHT22;61859;49.204;8.140;2023-02-26T11:25:23;3.40;63.10
73576;DHT22;61859;49.204;8.140;2023-02-26T11:27:54;3.30;63.40
73576;DHT22;61859;49.204;8.140;2023-02-26T11:30:25;3.30;63.70
73576;DHT22;61859;49.204;8.140;2023-02-26T11:32:53;3.30;64.70
73576;DHT22;61859;49.204;8.140;2023-02-26T11:35:23;3.40;63.80
73576;DHT22;61859;49.204;8.140;2023-02-26T11:37:56;3.30;64.00
73576;DHT22;61859;49.204;8.140;2023-02-26T11:40:31;3.20;63.70
73576;DHT22;61859;49.204;8.140;2023-02-26T11:43:00;3.00;64.30
73576;DHT22;61859;49.204;8.140;2023-02-26T11:45:27;2.80;64.40
73576;DHT22;61859;49.204;8.140;2023-02-26T11:48:03;3.00;64.80
73576;DHT22;61859;49.204;8.140;2023-02-26T11:50:29;2.80;65.10
73576;DHT22;61859;49.204;8.140;2023-02-26T11:53:05;3.10;65.10
73576;DHT22;61859;49.204;8.140;2023-02-26T11:55:36;2.90;64.20
73576;DHT22;61859;49.204;8.140;2023-02-26T11:58:10;3.20;63.80
73576;DHT22;61859;49.204;8.140;2023-02-26T12:00:39;3.40;63.70
73576;DHT22;61859;49.204;8.140;2023-02-26T12:03:07;3.70;62.70
73576;DHT22;61859;49.204;8.140;2023-02-26T12:05:38;3.80;62.80
73576;DHT22;61859;49.204;8.140;2023-02-26T12:08:25;3.60;62.70
73576;DHT22;61859;49.204;8.140;2023-02-26T12:16:20;3.50;61.20
73576;DHT22;61859;49.204;8.140;2023-02-26T12:19:05;3.30;61.80
73576;DHT22;61859;49.204;8.140;2023-02-26T12:27:23;3.30;62.30
73576;DHT22;61859;49.204;8.140;2023-02-26T12:33:06;3.30;62.40
73576;DHT22;61859;49.204;8.140;2023-02-26T12:38:24;3.40;62.60
73576;DHT22;61859;49.204;8.140;2023-02-26T12:43:22;3.70;62.00
73576;DHT22;61859;49.204;8.140;2023-02-26T12:48:57;3.80;60.30
73576;DHT22;61859;49.204;8.140;2023-02-26T12:54:19;3.90;59.50
73576;DHT22;61859;49.204;8.140;2023-02-26T12:56:55;4.10;59.10
73576;DHT22;61859;49.204;8.140;2023-02-26T12:59:54;4.20;58.60
73576;DHT22;61859;49.204;8.140;2023-02-26T13:05:54;4.30;58.10
73576;DHT22;61859;49.204;8.140;2023-02-26T13:08:31;4.10;58.20
73576;DHT22;61859;49.204;8.140;2023-02-26T13:11:29;4.00;58.40
73576;DHT22;61859;49.204;8.140;2023-02-26T13:19:37;3.90;61.20
73576;DHT22;61859;49.204;8.140;2023-02-26T13:22:25;3.90;61.50
73576;DHT22;61859;49.204;8.140;2023-02-26T13:25:05;3.70;62.50
73576;DHT22;61859;49.204;8.140;2023-02-26T13:27:35;3.80;64.70
73576;DHT22;61859;49.204;8.140;2023-02-26T13:32:31;3.50;65.60
73576;DHT22;61859;49.204;8.140;2023-02-26T13:35:32;3.60;66.60
73576;DHT22;61859;49.204;8.140;2023-02-26T13:38:00;3.60;65.00
73576;DHT22;61859;49.204;8.140;2023-02-26T13:43:35;3.80;63.00
73576;DHT22;61859;49.204;8.140;2023-02-26T13:49:20;4.20;61.00
73576;DHT22;61859;49.204;8.140;2023-02-26T13:51:49;4.40;59.70
73576;DHT22;61859;49.204;8.140;2023-02-26T13:56:52;4.60;58.80
73576;DHT22;61859;49.204;8.140;2023-02-26T13:59:47;4.50;58.30
73576;DHT22;61859;49.204;8.140;2023-02-26T14:04:51;4.60;56.40
73576;DHT22;61859;49.204;8.140;2023-02-26T14:10:28;4.90;56.60
73576;DHT22;61859;49.204;8.140;2023-02-26T14:13:17;4.90;55.60
73576;DHT22;61859;49.204;8.140;2023-02-26T14:18:30;5.20;54.20
73576;DHT22;61859;49.204;8.140;2023-02-26T14:21:35;5.20;52.90
73576;DHT22;61859;49.204;8.140;2023-02-26T14:30:13;5.30;52.40
73576;DHT22;61859;49.204;8.140;2023-02-26T14:32:48;5.20;52.60
73576;DHT22;61859;49.204;8.140;2023-02-26T14:35:21;5.10;53.20
73576;DHT22;61859;49.204;8.140;2023-02-26T14:38:05;5.10;53.40
73576;DHT22;61859;49.204;8.140;2023-02-26T14:40:39;4.80;53.80
73576;DHT22;61859;49.204;8.140;2023-02-26T14:43:15;4.90;53.70
73576;DHT22;61859;49.204;8.140;2023-02-26T14:45:41;4.90;54.20
73576;DHT22;61859;49.204;8.140;2023-02-26T14:48:15;4.90;54.00
73576;DHT22;61859;49.204;8.140;2023-02-26T15:00:01;4.90;53.10
73576;DHT22;61859;49.204;8.140;2023-02-26T15:17:02;4.80;52.80
73576;DHT22;61859;49.204;8.140;2023-02-26T15:22:23;4.70;52.80
73576;DHT22;61859;49.204;8.140;2023-02-26T15:24:52;4.50;53.60
73576;DHT22;61859;49.204;8.140;2023-02-26T15:27:19;4.30;54.00
73576;DHT22;61859;49.204;8.140;2023-02-26T15:29:45;4.10;54.00
73576;DHT22;61859;49.204;8.140;2023-02-26T15:32:27;4.10;54.40
73576;DHT22;61859;49.204;8.140;2023-02-26T15:35:02;3.90;54.30
73576;DHT22;61859;49.204;8.140;2023-02-26T15:37:29;4.00;53.50
73576;DHT22;61859;49.204;8.140;2023-02-26T15:39:58;4.00;54.30
73576;DHT22;61859;49.204;8.140;2023-02-26T15:42:29;4.00;55.30
73576;DHT22;61859;49.204;8.140;2023-02-26T15:44:59;4.10;55.20
73576;DHT22;61859;49.204;8.140;2023-02-26T15:47:27;3.90;54.90
73576;DHT22;61859;49.204;8.140;2023-02-26T15:49:53;3.60;54.90
73576;DHT22;61859;49.204;8.140;2023-02-26T15:52:22;3.80;54.70
73576;DHT22;61859;49.204;8.140;2023-02-26T15:54:51;3.80;55.10
73576;DHT22;61859;49.204;8.140;2023-02-26T15:57:18;3.70;55.30
73576;DHT22;61859;49.204;8.140;2023-02-26T15:59:49;3.60;55.90
73576;DHT22;61859;49.204;8.140;2023-02-26T16:02:25;3.40;55.50
73576;DHT22;61859;49.204;8.140;2023-02-26T16:04:51;3.40;55.30
73576;DHT22;61859;49.204;8.140;2023-02-26T16:07:18;3.20;54.80
73576;DHT22;61859;49.204;8.140;2023-02-26T16:09:46;3.40;54.70
73576;DHT22;61859;49.204;8.140;2023-02-26T16:12:16;3.20;55.20
73576;DHT22;61859;49.204;8.140;2023-02-26T16:14:45;3.10;55.50
73576;DHT22;61859;49.204;8.140;2023-02-26T16:17:22;3.10;56.40
73576;DHT22;61859;49.204;8.140;2023-02-26T16:19:49;3.50;57.40
73576;DHT22;61859;49.204;8.140;2023-02-26T16:22:22;4.20;55.70
73576;DHT22;61859;49.204;8.140;2023-02-26T16:27:49;4.70;54.50
73576;DHT22;61859;49.204;8.140;2023-02-26T16:30:18;5.00;53.50
73576;DHT22;61859;49.204;8.140;2023-02-26T16:32:51;4.90;53.00
73576;DHT22;61859;49.204;8.140;2023-02-26T16:35:20;4.60;53.20
73576;DHT22;61859;49.204;8.140;2023-02-26T16:37:49;4.20;53.60
73576;DHT22;61859;49.204;8.140;2023-02-26T16:40:18;3.80;54.00
73576;DHT22;61859;49.204;8.140;2023-02-26T16:42:52;3.50;55.00
73576;DHT22;61859;49.204;8.140;2023-02-26T16:45:43;3.40;55.70
73576;DHT22;61859;49.204;8.140;2023-02-26T16:48:26;3.20;56.60
73576;DHT22;61859;49.204;8.140;2023-02-26T16:50:59;2.90;57.10
73576;DHT22;61859;49.204;8.140;2023-02-26T16:53:39;2.80;58.30
73576;DHT22;61859;49.204;8.140;2023-02-26T16:56:11;2.80;58.50
73576;DHT22;61859;49.204;8.140;2023-02-26T16:58:42;2.80;59.20
73576;DHT22;61859;49.204;8.140;2023-02-26T17:01:14;2.80;59.90
73576;DHT22;61859;49.204;8.140;2023-02-26T17:03:42;2.70;59.70
73576;DHT22;61859;49.204;8.140;2023-02-26T17:06:12;2.60;60.30
73576;DHT22;61859;49.204;8.140;2023-02-26T17:08:52;2.40;60.20
73576;DHT22;61859;49.204;8.140;2023-02-26T17:14:07;2.50;60.40
73576;DHT22;61859;49.204;8.140;2023-02-26T17:16:34;2.50;59.80
73576;DHT22;61859;49.204;8.140;2023-02-26T17:19:00;2.40;59.80
73576;DHT22;61859;49.204;8.140;2023-02-26T17:21:27;2.40;59.70
73576;DHT22;61859;49.204;8.140;2023-02-26T17:23:53;2.50;60.10
73576;DHT22;61859;49.204;8.140;2023-02-26T17:26:18;2.40;59.80
73576;DHT22;61859;49.204;8.140;2023-02-26T17:28:44;2.40;60.00
73576;DHT22;61859;49.204;8.140;2023-02-26T17:31:10;2.40;59.90
73576;DHT22;61859;49.204;8.140;2023-02-26T17:33:39;2.40;59.90
73576;DHT22;61859;49.204;8.140;2023-02-26T17:36:05;2.40;59.90
73576;DHT22;61859;49.204;8.140;2023-02-26T17:38:32;2.30;59.60
73576;DHT22;61859;49.204;8.140;2023-02-26T17:40:58;2.50;59.50
73576;DHT22;61859;49.204;8.140;2023-02-26T17:43:24;2.20;59.70
73576;DHT22;61859;49.204;8.140;2023-02-26T17:45:50;2.40;59.90
73576;DHT22;61859;49.204;8.140;2023-02-26T17:48:16;2.40;60.30
73576;DHT22;61859;49.204;8.140;2023-02-26T17:50:56;2.20;60.40
73576;DHT22;61859;49.204;8.140;2023-02-26T17:53:23;2.10;60.50
73576;DHT22;61859;49.204;8.140;2023-02-26T17:55:51;2.30;60.40
73576;DHT22;61859;49.204;8.140;2023-02-26T17:58:24;2.40;60.40
73576;DHT22;61859;49.204;8.140;2023-02-26T18:00:50;2.20;61.10
73576;DHT22;61859;49.204;8.140;2023-02-26T18:03:17;2.10;60.70
73576;DHT22;61859;49.204;8.140;2023-02-26T18:05:45;2.30;60.70
73576;DHT22;61859;49.204;8.140;2023-02-26T18:08:21;1.90;61.40
73576;DHT22;61859;49.204;8.140;2023-02-26T18:10:48;1.90;61.80
73576;DHT22;61859;49.204;8.140;2023-02-26T18:13:14;2.10;62.20
73576;DHT22;61859;49.204;8.140;2023-02-26T18:15:40;2.00;61.90
73576;DHT22;61859;49.204;8.140;2023-02-26T18:18:08;1.80;61.70
73576;DHT22;61859;49.204;8.140;2023-02-26T18:20:34;2.00;62.10
73576;DHT22;61859;49.204;8.140;2023-02-26T18:23:00;1.70;62.10
73576;DHT22;61859;49.204;8.140;2023-02-26T18:25:26;1.90;62.30
73576;DHT22;61859;49.204;8.140;2023-02-26T18:27:54;1.80;62.40
73576;DHT22;61859;49.204;8.140;2023-02-26T18:30:27;2.00;62.50